Time;durP1;ratioP1;P1;durP2;ratioP2;P2;SDS_P1;SDS_P2;PMS_P1;PMS_P2;Temp;Humidity;BMP_temperature;BMP_pressure;BME280_temperature;BME280_humidity;BME280_pressure;Samples;Min_cycle;Max_cycle;Signal;HPM_P1;HPM_P2
2022/10/27 00:00:52;;;;;;;15.20;5.38;;;;;;;14.78;100.00;101981.38;5036864;28;20481;-82
2022/10/27 00:03:18;;;;;;;16.05;4.65;;;;;;;14.73;100.00;101983.78;5036793;28;20032;-82
2022/10/27 00:05:44;;;;;;;20.58;5.22;;;;;;;14.70;100.00;101985.81;5036562;28;20072;-82
2022/10/27 00:08:17;;;;;;;15.35;3.65;;;;;;;14.69;100.00;101975.16;5040303;28;20061;-81
2022/10/27 00:10:43;;;;;;;16.13;4.32;;;;;;;14.65;100.00;101988.22;5043980;28;20057;-83
2022/10/27 00:13:10;;;;;;;20.20;4.60;;;;;;;14.60;100.00;101985.22;5037770;28;20037;-80
2022/10/27 00:15:36;;;;;;;18.73;4.10;;;;;;;14.55;100.00;101990.31;5039219;28;20044;-80
2022/10/27 00:18:07;;;;;;;19.58;4.75;;;;;;;14.55;100.00;101989.50;5039830;28;20079;-80
2022/10/27 00:20:33;;;;;;;10.38;4.70;;;;;;;14.53;100.00;101991.53;5039853;28;20463;-80
2022/10/27 00:22:58;;;;;;;18.05;4.72;;;;;;;14.48;100.00;102000.16;5039364;28;20044;-80
2022/10/27 00:25:23;;;;;;;21.90;4.18;;;;;;;14.46;100.00;102008.47;5039443;28;20363;-80
2022/10/27 00:27:49;;;;;;;12.48;4.10;;;;;;;14.42;100.00;102006.31;5038383;28;20029;-83
2022/10/27 00:30:14;;;;;;;19.02;4.95;;;;;;;14.38;100.00;102005.00;5037625;28;20343;-83
2022/10/27 00:32:40;;;;;;;13.80;4.95;;;;;;;14.32;100.00;101997.56;5039752;28;20033;-82
2022/10/27 00:35:05;;;;;;;14.90;4.75;;;;;;;14.27;100.00;102001.66;5039940;28;20060;-81
2022/10/27 00:37:31;;;;;;;15.40;5.53;;;;;;;14.25;100.00;102008.28;5037988;28;20060;-83
2022/10/27 00:39:56;;;;;;;19.90;4.78;;;;;;;14.21;100.00;102007.75;5037873;28;20038;-83
2022/10/27 00:42:21;;;;;;;18.83;5.30;;;;;;;14.16;100.00;102017.44;5039239;28;20021;-82
2022/10/27 00:44:47;;;;;;;22.10;5.55;;;;;;;14.13;100.00;102021.34;5039042;28;20025;-81
2022/10/27 00:47:28;;;;;;;24.65;5.20;;;;;;;14.08;100.00;102021.03;5038741;28;20093;-82
2022/10/27 00:50:07;;;;;;;19.85;5.38;;;;;;;14.05;100.00;102024.09;5035634;28;20064;-82
2022/10/27 00:52:54;;;;;;;15.43;5.57;;;;;;;14.03;100.00;102012.59;5037112;28;20404;-83
2022/10/27 00:55:32;;;;;;;12.77;5.38;;;;;;;14.02;100.00;102016.34;5047259;28;20033;-81
2022/10/27 00:58:01;;;;;;;13.75;5.13;;;;;;;14.04;100.00;102017.00;5031858;28;20509;-82
2022/10/27 01:00:27;;;;;;;16.95;5.55;;;;;;;14.01;100.00;102020.06;5038809;28;20045;-81
2022/10/27 01:02:52;;;;;;;12.82;4.53;;;;;;;14.00;100.00;102026.47;5044808;28;20051;-82
2022/10/27 01:05:20;;;;;;;23.33;5.13;;;;;;;13.96;100.00;102030.56;5052391;28;20073;-82
2022/10/27 01:07:46;;;;;;;15.35;5.00;;;;;;;13.97;100.00;102024.13;5052821;28;20045;-80
2022/10/27 01:10:12;;;;;;;16.38;5.45;;;;;;;13.97;100.00;102026.84;5052759;28;20109;-80
2022/10/27 01:12:38;;;;;;;23.20;5.80;;;;;;;13.99;100.00;102028.34;5052585;28;20025;-82
2022/10/27 01:15:05;;;;;;;20.30;5.60;;;;;;;14.00;100.00;102021.06;5049275;28;20033;-82
2022/10/27 01:17:51;;;;;;;18.08;6.35;;;;;;;14.05;100.00;102018.69;5050968;28;20064;-80
2022/10/27 01:20:37;;;;;;;17.27;6.18;;;;;;;14.07;100.00;102022.06;5048531;28;20044;-81
2022/10/27 01:23:35;;;;;;;22.67;6.50;;;;;;;14.08;100.00;102026.44;5026502;28;20469;-82
2022/10/27 01:26:23;;;;;;;28.77;6.63;;;;;;;14.08;100.00;102029.16;5035861;28;20028;-82
2022/10/27 01:29:39;;;;;;;22.35;6.13;;;;;;;14.13;100.00;102029.47;5036129;28;20384;-82
2022/10/27 01:32:26;;;;;;;20.85;5.97;;;;;;;14.13;100.00;102028.63;5018799;28;20044;-82
2022/10/27 01:35:12;;;;;;;19.95;6.28;;;;;;;14.12;100.00;102033.22;5038444;28;20048;-82
2022/10/27 01:38:02;;;;;;;22.60;5.45;;;;;;;14.13;100.00;102029.47;5040367;28;20037;-82
2022/10/27 01:40:41;;;;;;;22.38;6.80;;;;;;;14.11;100.00;102026.09;5024306;28;20033;-82
2022/10/27 01:43:10;;;;;;;18.23;6.15;;;;;;;14.06;100.00;102017.69;5049319;28;20040;-80
2022/10/27 01:45:39;;;;;;;22.92;6.70;;;;;;;14.06;100.00;102025.81;5045284;28;20363;-83
2022/10/27 01:48:05;;;;;;;22.50;5.65;;;;;;;14.02;100.00;102011.75;5037938;28;20065;-82
2022/10/27 01:50:36;;;;;;;18.70;6.15;;;;;;;14.01;100.00;102006.53;5033451;28;20183;-82
2022/10/27 01:53:02;;;;;;;20.60;6.22;;;;;;;13.97;100.00;102013.31;5032729;28;20029;-82
2022/10/27 01:56:02;;;;;;;22.83;7.00;;;;;;;13.90;100.00;102006.91;5032910;28;20488;-82
2022/10/27 01:58:56;;;;;;;29.73;7.38;;;;;;;13.84;100.00;101998.47;5033158;28;20116;-82
2022/10/27 02:01:43;;;;;;;13.38;6.05;;;;;;;13.83;100.00;102002.19;5031998;28;20033;-83
2022/10/27 02:04:24;;;;;;;16.67;6.43;;;;;;;13.79;100.00;102000.00;5033406;28;20032;-82
2022/10/27 02:07:04;;;;;;;18.58;6.40;;;;;;;13.75;100.00;101998.69;5067517;22;20405;-42
2022/10/27 02:09:42;;;;;;;23.13;7.03;;;;;;;13.74;100.00;101996.97;5051887;28;20075;-41
2022/10/27 02:12:23;;;;;;;20.38;6.28;;;;;;;13.75;100.00;102002.22;5053844;28;20162;-42
2022/10/27 02:14:50;;;;;;;24.80;6.00;;;;;;;13.76;100.00;101995.78;5049810;28;20021;-42
2022/10/27 02:17:16;;;;;;;28.73;6.87;;;;;;;13.78;100.00;101999.19;5060389;28;20059;-42
2022/10/27 02:19:43;;;;;;;25.92;7.07;;;;;;;13.82;100.00;102000.53;5067805;28;20115;-41
2022/10/27 02:22:09;;;;;;;22.27;7.03;;;;;;;13.79;100.00;102000.84;5066724;28;20062;-41
2022/10/27 02:24:35;;;;;;;19.38;6.72;;;;;;;13.79;100.00;102000.84;5060883;28;20078;-41
2022/10/27 02:27:21;;;;;;;17.80;6.43;;;;;;;13.77;100.00;101997.50;5057346;28;20384;-42
2022/10/27 02:29:48;;;;;;;19.30;6.07;;;;;;;13.77;100.00;102008.31;5052108;28;20032;-41
2022/10/27 02:32:16;;;;;;;23.85;6.15;;;;;;;13.75;100.00;101994.13;5054090;28;20040;-42
2022/10/27 02:34:42;;;;;;;17.45;6.10;;;;;;;13.73;100.00;101985.31;5052378;28;20037;-41
2022/10/27 02:37:08;;;;;;;20.38;5.93;;;;;;;13.70;100.00;101985.69;5047704;28;20131;-42
2022/10/27 02:39:34;;;;;;;18.90;5.88;;;;;;;13.72;100.00;101975.53;5056931;28;20037;-42
2022/10/27 02:42:01;;;;;;;22.13;5.90;;;;;;;13.70;100.00;101977.56;5073267;28;20113;-42
2022/10/27 02:44:26;;;;;;;22.98;5.78;;;;;;;13.71;100.00;101987.34;5068769;28;20068;-43
2022/10/27 02:46:51;;;;;;;21.70;6.07;;;;;;;13.70;100.00;101980.25;5069919;28;20083;-42
2022/10/27 02:49:17;;;;;;;15.85;5.85;;;;;;;13.70;100.00;101984.84;5057113;28;20364;-42
2022/10/27 02:51:42;;;;;;;28.80;6.13;;;;;;;13.66;100.00;101983.50;5062406;28;20031;-43
2022/10/27 02:54:07;;;;;;;20.63;5.80;;;;;;;13.67;100.00;101987.91;5061050;28;20036;-42
2022/10/27 02:56:33;;;;;;;24.08;7.25;;;;;;;13.64;100.00;101986.38;5069060;28;20032;-41
2022/10/27 02:58:58;;;;;;;18.20;6.30;;;;;;;13.64;100.00;101985.50;5059243;28;20029;-40
2022/10/27 03:01:23;;;;;;;14.60;5.90;;;;;;;13.60;100.00;101974.22;5062438;28;20128;-41
2022/10/27 03:03:49;;;;;;;24.50;6.88;;;;;;;13.59;100.00;101983.34;5053290;28;20025;-41
2022/10/27 03:06:14;;;;;;;23.42;6.28;;;;;;;13.54;100.00;101977.63;5062104;28;20435;-42
2022/10/27 03:08:39;;;;;;;16.60;6.35;;;;;;;13.52;100.00;101974.25;5033519;28;20515;-41
2022/10/27 03:11:05;;;;;;;21.55;6.57;;;;;;;13.54;100.00;101974.91;5023797;28;20459;-41
2022/10/27 03:13:30;;;;;;;22.85;7.65;;;;;;;13.55;100.00;101979.31;5043275;28;20418;-43
2022/10/27 03:15:55;;;;;;;16.35;6.95;;;;;;;13.52;100.00;101971.53;5049116;28;20387;-42
2022/10/27 03:18:21;;;;;;;21.77;6.88;;;;;;;13.50;100.00;101979.81;5048308;28;20365;-41
2022/10/27 03:20:46;;;;;;;21.85;7.03;;;;;;;13.49;100.00;101974.59;5033168;28;20396;-42
2022/10/27 03:23:12;;;;;;;21.65;7.38;;;;;;;13.47;100.00;101984.72;5039987;28;20029;-41
2022/10/27 03:25:42;;;;;;;22.27;6.85;;;;;;;13.44;100.00;101979.69;5050343;28;20082;-42
2022/10/27 03:28:08;;;;;;;21.40;7.63;;;;;;;13.47;100.00;101984.72;5050542;28;20162;-41
2022/10/27 03:30:33;;;;;;;30.00;6.90;;;;;;;13.43;100.00;101978.84;5051760;28;20463;-43
2022/10/27 03:33:00;;;;;;;16.45;6.60;;;;;;;13.41;100.00;101980.03;5033666;28;20053;-42
2022/10/27 03:35:25;;;;;;;18.58;6.60;;;;;;;13.35;100.00;101971.59;5042747;28;20026;-41
2022/10/27 03:37:54;;;;;;;19.52;6.85;;;;;;;13.35;100.00;101970.75;5039531;28;20495;-42
2022/10/27 03:40:20;;;;;;;21.17;7.20;;;;;;;13.36;100.00;101983.25;5032028;28;20033;-42
2022/10/27 03:42:45;;;;;;;21.70;7.00;;;;;;;13.31;100.00;101986.44;5046775;28;20461;-42
2022/10/27 03:45:11;;;;;;;16.08;7.15;;;;;;;13.32;100.00;101990.00;5052056;28;20468;-41
2022/10/27 03:47:36;;;;;;;18.35;7.03;;;;;;;13.29;100.00;101988.47;5033613;28;20140;-41
2022/10/27 03:50:01;;;;;;;15.48;6.65;;;;;;;13.29;100.00;101998.47;5050341;28;20082;-41
2022/10/27 03:52:27;;;;;;;23.25;8.27;;;;;;;13.28;100.00;102007.59;5044957;28;20473;-42
2022/10/27 03:54:52;;;;;;;22.48;7.07;;;;;;;13.29;100.00;101998.47;5046309;28;20128;-42
2022/10/27 03:57:17;;;;;;;22.02;7.18;;;;;;;13.27;100.00;102001.34;5035530;28;20080;-40
2022/10/27 03:59:43;;;;;;;25.30;7.38;;;;;;;13.29;100.00;102002.00;5031502;28;20033;-42
2022/10/27 04:02:08;;;;;;;22.45;6.38;;;;;;;13.32;100.00;101996.28;5029715;28;20113;-42
2022/10/27 04:04:33;;;;;;;19.63;6.78;;;;;;;13.32;100.00;102009.78;5032321;28;20128;-43
2022/10/27 04:06:59;;;;;;;30.55;7.45;;;;;;;13.38;100.00;102006.38;5043308;28;20088;-43
2022/10/27 04:09:24;;;;;;;23.38;7.88;;;;;;;13.41;100.00;102016.03;5036601;28;20480;-43
2022/10/27 04:11:49;;;;;;;22.10;6.47;;;;;;;13.44;100.00;102012.97;5039720;28;20511;-41
2022/10/27 04:14:15;;;;;;;25.58;6.20;;;;;;;13.49;100.00;102009.75;5029324;28;20472;-43
2022/10/27 04:16:40;;;;;;;17.17;6.28;;;;;;;13.51;100.00;102005.03;5030404;28;20039;-42
2022/10/27 04:19:06;;;;;;;20.20;5.97;;;;;;;13.53;100.00;102005.66;5048116;28;20108;-43
2022/10/27 04:21:31;;;;;;;20.05;5.75;;;;;;;13.54;100.00;102001.97;5036165;28;20108;-41
2022/10/27 04:23:56;;;;;;;22.90;6.38;;;;;;;13.57;100.00;102004.31;5032150;28;20049;-41
2022/10/27 04:26:21;;;;;;;14.43;5.78;;;;;;;13.59;100.00;102002.28;5030301;28;20065;-43
2022/10/27 04:28:47;;;;;;;25.35;5.25;;;;;;;13.61;100.00;102002.94;5033711;28;20053;-41
2022/10/27 04:31:12;;;;;;;21.20;5.95;;;;;;;13.60;100.00;102003.97;5031283;28;20034;-41
2022/10/27 04:33:37;;;;;;;16.13;5.68;;;;;;;13.61;100.00;102008.34;5029247;28;20436;-41
2022/10/27 04:36:05;;;;;;;22.05;5.10;;;;;;;13.65;100.00;101993.47;5038851;28;20113;-41
2022/10/27 04:38:31;;;;;;;17.10;5.20;;;;;;;13.72;100.00;101999.03;5042277;28;20029;-41
2022/10/27 04:40:59;;;;;;;18.60;5.30;;;;;;;13.75;100.00;101999.53;5035984;28;20044;-43
2022/10/27 04:43:24;;;;;;;21.02;5.45;;;;;;;13.83;100.00;101988.66;5037483;28;20021;-41
2022/10/27 04:45:50;;;;;;;18.50;5.43;;;;;;;13.84;100.00;101987.63;5038728;28;20448;-43
2022/10/27 04:48:15;;;;;;;16.88;5.07;;;;;;;13.85;100.00;101985.81;5049332;28;20032;-41
2022/10/27 04:50:40;;;;;;;16.23;4.90;;;;;;;13.84;100.00;101979.53;5044955;28;20028;-41
2022/10/27 04:53:06;;;;;;;13.93;4.68;;;;;;;13.89;100.00;101980.88;5028858;28;20138;-42
2022/10/27 04:55:32;;;;;;;16.88;4.90;;;;;;;13.88;100.00;101982.75;5028589;28;20068;-42
2022/10/27 04:57:58;;;;;;;12.95;4.47;;;;;;;13.88;100.00;101976.50;5035922;28;20571;-42
2022/10/27 05:00:23;;;;;;;18.83;4.70;;;;;;;13.89;100.00;101968.19;5048178;28;20112;-42
2022/10/27 05:02:56;;;;;;;18.90;4.82;;;;;;;13.91;100.00;101968.00;5041854;28;20048;-42
2022/10/27 05:05:22;;;;;;;15.88;4.70;;;;;;;13.92;100.00;101975.09;5028061;28;20022;-41
2022/10/27 05:07:59;;;;;;;15.18;4.72;;;;;;;14.00;100.00;101964.22;5032604;28;20041;-41
2022/10/27 05:10:25;;;;;;;15.65;4.63;;;;;;;14.06;100.00;101963.53;5048766;28;20071;-43
2022/10/27 05:12:50;;;;;;;11.32;3.88;;;;;;;14.13;100.00;101967.19;5042713;28;20025;-41
2022/10/27 05:15:16;;;;;;;9.82;3.65;;;;;;;14.22;100.00;101949.06;5047319;28;20107;-42
2022/10/27 05:17:41;;;;;;;14.10;3.78;;;;;;;14.26;100.00;101953.09;5047162;28;20108;-41
2022/10/27 05:20:07;;;;;;;12.48;3.50;;;;;;;14.32;100.00;101951.53;5047520;28;20079;-40
2022/10/27 05:22:34;;;;;;;11.45;4.10;;;;;;;14.36;100.00;101950.16;5038385;28;20026;-44
2022/10/27 05:25:00;;;;;;;11.07;3.47;;;;;;;14.42;100.00;101941.28;5037843;28;20110;-42
2022/10/27 05:27:25;;;;;;;13.77;3.50;;;;;;;14.47;100.00;101949.72;5048863;28;20025;-42
2022/10/27 05:29:51;;;;;;;8.95;3.10;;;;;;;14.51;100.00;101937.53;5045628;28;20267;-41
2022/10/27 05:32:16;;;;;;;13.30;3.10;;;;;;;14.54;100.00;101942.59;5029026;28;20053;-41
2022/10/27 05:34:42;;;;;;;11.65;3.67;;;;;;;14.57;100.00;101934.09;5048154;28;20076;-41
2022/10/27 05:37:07;;;;;;;16.27;3.60;;;;;;;14.55;100.00;101925.31;5036821;28;20033;-41
2022/10/27 05:39:32;;;;;;;9.27;3.00;;;;;;;14.59;100.00;101920.41;5038535;28;20056;-41
2022/10/27 05:41:58;;;;;;;25.15;3.38;;;;;;;14.61;100.00;101931.88;5047708;28;20111;-41
2022/10/27 05:44:23;;;;;;;7.95;2.88;;;;;;;14.61;100.00;101923.75;5028958;28;20119;-44
2022/10/27 05:46:48;;;;;;;9.25;2.63;;;;;;;14.62;100.00;101917.31;5033398;28;20030;-42
2022/10/27 05:49:14;;;;;;;11.20;2.88;;;;;;;14.62;100.00;101915.44;5043735;28;20471;-43
2022/10/27 05:51:39;;;;;;;11.75;3.55;;;;;;;14.60;100.00;101906.66;5048288;28;20076;-42
2022/10/27 05:54:04;;;;;;;9.98;3.10;;;;;;;14.58;100.00;101903.28;5048712;28;20025;-42
2022/10/27 05:56:30;;;;;;;10.60;2.90;;;;;;;14.61;100.00;101907.47;5039646;28;20033;-42
2022/10/27 05:58:55;;;;;;;13.05;3.30;;;;;;;14.57;100.00;101901.59;5048042;28;20041;-42
2022/10/27 06:01:21;;;;;;;18.40;3.80;;;;;;;14.54;100.00;101901.97;5047937;28;20068;-42
2022/10/27 06:03:46;;;;;;;7.90;2.85;;;;;;;14.51;100.00;101907.72;5047504;28;20064;-41
2022/10/27 06:06:11;;;;;;;9.20;2.97;;;;;;;14.53;100.00;101904.84;5037553;28;20042;-42
2022/10/27 06:08:37;;;;;;;13.93;3.20;;;;;;;14.49;100.00;101905.19;5048219;28;20090;-43
2022/10/27 06:11:03;;;;;;;18.45;3.67;;;;;;;14.47;100.00;101900.97;5050257;28;20117;-42
2022/10/27 06:13:29;;;;;;;13.18;4.03;;;;;;;14.38;100.00;101892.06;5045150;28;20026;-41
2022/10/27 06:15:54;;;;;;;15.23;3.80;;;;;;;14.28;100.00;101903.16;5033645;28;20033;-41
2022/10/27 06:18:19;;;;;;;12.10;4.10;;;;;;;14.19;100.00;101896.13;5039425;28;20116;-43
2022/10/27 06:20:45;;;;;;;14.07;4.00;;;;;;;14.14;100.00;101898.53;5030774;28;20057;-42
2022/10/27 06:23:10;;;;;;;13.82;4.25;;;;;;;14.12;100.00;101897.84;5042832;28;20043;-42
2022/10/27 06:25:36;;;;;;;20.85;3.85;;;;;;;14.11;100.00;101900.72;5045035;28;20033;-42
2022/10/27 06:28:01;;;;;;;9.38;3.20;;;;;;;14.10;100.00;101893.63;5049070;28;20017;-42
2022/10/27 06:30:27;;;;;;;19.08;3.95;;;;;;;14.10;100.00;101894.47;5049239;28;20091;-41
2022/10/27 06:32:52;;;;;;;14.10;3.30;;;;;;;14.09;100.00;101881.97;5035719;28;20029;-41
2022/10/27 06:35:18;;;;;;;11.48;3.40;;;;;;;14.04;100.00;101879.78;5048228;28;20040;-42
2022/10/27 06:37:44;;;;;;;14.18;3.55;;;;;;;14.00;100.00;101883.88;5042654;28;20025;-41
2022/10/27 06:40:10;;;;;;;10.02;3.03;;;;;;;13.97;100.00;101886.09;5040233;28;20523;-42
2022/10/27 06:42:37;;;;;;;15.27;3.95;;;;;;;13.94;100.00;101883.75;5046540;28;20034;-42
2022/10/27 06:45:03;;;;;;;14.38;3.95;;;;;;;13.91;100.00;101895.78;5040953;28;20029;-41
2022/10/27 06:47:29;;;;;;;9.52;3.13;;;;;;;13.90;100.00;101879.72;5043372;28;20037;-40
2022/10/27 06:49:54;;;;;;;15.23;3.05;;;;;;;13.87;100.00;101883.63;5049573;28;20037;-42
2022/10/27 06:52:19;;;;;;;13.25;3.00;;;;;;;13.83;100.00;101885.84;5049942;28;20033;-40
2022/10/27 06:54:45;;;;;;;13.52;3.33;;;;;;;13.86;100.00;101886.50;5049729;28;20087;-41
2022/10/27 06:57:10;;;;;;;8.93;3.30;;;;;;;13.84;100.00;101879.41;5049196;28;20056;-41
2022/10/27 06:59:35;;;;;;;13.18;3.30;;;;;;;13.84;100.00;101890.22;5047580;28;20026;-40
2022/10/27 07:02:02;;;;;;;7.47;3.20;;;;;;;13.87;100.00;101878.19;5049212;28;20052;-41
2022/10/27 07:04:27;;;;;;;12.73;3.33;;;;;;;13.92;100.00;101888.50;5048759;28;20025;-42
2022/10/27 07:06:53;;;;;;;13.20;2.95;;;;;;;13.94;100.00;101889.16;5048570;28;20063;-41
2022/10/27 07:09:18;;;;;;;9.48;3.17;;;;;;;13.95;100.00;101874.59;5044750;28;20131;-41
2022/10/27 07:11:43;;;;;;;6.43;3.15;;;;;;;13.95;100.00;101880.00;5035492;28;20464;-42
2022/10/27 07:14:09;;;;;;;14.35;3.47;;;;;;;13.97;100.00;101872.56;5036809;28;20025;-40
2022/10/27 07:16:34;;;;;;;15.35;3.50;;;;;;;13.97;100.00;101875.28;5039944;28;20473;-41
2022/10/27 07:19:00;;;;;;;12.07;4.03;;;;;;;14.01;100.00;101884.75;5037854;28;20017;-41
2022/10/27 07:21:26;;;;;;;13.05;4.65;;;;;;;14.00;100.00;101885.75;5040260;28;20461;-42
2022/10/27 07:23:52;;;;;;;13.80;4.32;;;;;;;14.05;100.00;101881.47;5044023;28;20117;-42
2022/10/27 07:26:17;;;;;;;11.63;3.78;;;;;;;14.14;100.00;101889.53;5036127;28;20040;-41
2022/10/27 07:28:42;;;;;;;15.85;4.22;;;;;;;14.24;100.00;101891.00;5045696;28;20117;-42
2022/10/27 07:31:08;;;;;;;11.25;3.60;;;;;;;14.47;100.00;101890.13;5040755;28;20135;-42
2022/10/27 07:33:33;;;;;;;14.38;3.90;;;;;;;14.64;100.00;101885.44;5041189;28;20116;-40
2022/10/27 07:35:58;;;;;;;11.13;3.33;;;;;;;14.79;100.00;101893.59;5041037;28;20026;-43
2022/10/27 07:38:24;;;;;;;11.52;3.38;;;;;;;14.89;100.00;101886.06;5050455;28;20132;-39
2022/10/27 07:40:49;;;;;;;11.15;3.63;;;;;;;15.15;100.00;101883.75;5032258;28;20068;-41
2022/10/27 07:43:14;;;;;;;8.95;3.15;;;;;;;15.40;100.00;101874.47;5048936;28;20472;-40
2022/10/27 07:45:41;;;;;;;19.85;3.80;;;;;;;15.69;100.00;101873.59;5043514;28;20473;-42
2022/10/27 07:48:10;;;;;;;13.15;3.58;;;;;;;15.96;97.89;101870.19;5041057;28;20029;-43
2022/10/27 07:50:36;;;;;;;10.15;3.00;;;;;;;16.07;95.73;101870.72;5035513;28;20029;-42
2022/10/27 07:53:01;;;;;;;11.55;2.75;;;;;;;16.35;95.44;101868.91;5042813;28;20029;-41
2022/10/27 07:55:28;;;;;;;10.95;3.10;;;;;;;16.50;92.85;101870.69;5045594;28;20029;-41
2022/10/27 07:58:01;;;;;;;7.87;2.70;;;;;;;16.56;91.02;101869.88;5047973;28;20029;-42
2022/10/27 08:00:28;;;;;;;10.32;2.85;;;;;;;16.73;90.44;101865.03;5039605;28;20463;-41
2022/10/27 08:02:53;;;;;;;8.55;2.85;;;;;;;17.09;89.75;101862.16;5038400;28;20057;-41
2022/10/27 08:05:19;;;;;;;13.07;3.40;;;;;;;17.34;86.95;101862.50;5044227;28;20087;-40
2022/10/27 08:07:44;;;;;;;8.38;2.65;;;;;;;17.31;84.52;101862.91;5044821;28;20128;-41
2022/10/27 08:10:09;;;;;;;10.95;2.60;;;;;;;17.14;84.88;101858.81;5045556;28;20075;-40
2022/10/27 08:12:40;;;;;;;4.00;2.15;;;;;;;16.87;84.78;101858.66;5045298;28;20041;-41
2022/10/27 08:15:07;;;;;;;6.75;2.20;;;;;;;17.00;84.94;101845.16;5044079;28;20037;-41
2022/10/27 08:17:32;;;;;;;7.93;2.43;;;;;;;17.18;84.87;101847.34;5043486;28;20053;-42
2022/10/27 08:19:58;;;;;;;13.13;2.92;;;;;;;17.12;83.11;101848.16;5029778;28;20080;-42
2022/10/27 08:22:23;;;;;;;13.75;2.40;;;;;;;17.48;82.63;101852.50;5029701;28;20095;-41
2022/10/27 08:24:48;;;;;;;4.28;1.60;;;;;;;17.28;80.45;101847.81;5040409;28;20017;-42
2022/10/27 08:27:14;;;;;;;5.30;2.40;;;;;;;17.17;80.25;101845.69;5045126;28;20488;-41
2022/10/27 08:29:40;;;;;;;13.45;1.95;;;;;;;17.16;80.93;101840.41;5046022;28;20570;-41
2022/10/27 08:32:06;;;;;;;10.18;2.25;;;;;;;17.16;80.50;101833.09;5056677;28;20037;-42
2022/10/27 08:34:31;;;;;;;5.70;1.80;;;;;;;17.16;79.30;101824.09;5039850;28;20079;-41
2022/10/27 08:36:56;;;;;;;7.13;1.85;;;;;;;17.00;79.42;101814.41;5027813;28;20041;-40
2022/10/27 08:39:22;;;;;;;4.13;1.92;;;;;;;17.05;79.26;101817.34;5060042;28;20040;-41
2022/10/27 08:41:55;;;;;;;3.40;1.65;;;;;;;17.18;79.36;101814.69;5033283;28;20056;-41
2022/10/27 08:44:28;;;;;;;7.13;1.75;;;;;;;17.61;77.55;101809.00;5054422;28;20287;-41
2022/10/27 08:47:05;;;;;;;9.13;1.60;;;;;;;17.84;75.32;101818.72;5033888;28;20033;-41
2022/10/27 08:50:00;;;;;;;9.95;2.75;;;;;;;17.97;74.75;101819.59;5049450;28;20392;-41
2022/10/27 08:52:30;;;;;;;3.95;1.30;;;;;;;17.80;74.22;101817.44;5026802;28;20337;-41
2022/10/27 08:55:14;;;;;;;5.75;1.70;;;;;;;17.79;74.63;101813.88;5044447;28;20415;-42
2022/10/27 08:57:45;;;;;;;8.02;1.92;;;;;;;17.86;74.30;101813.91;5048881;28;20523;-41
2022/10/27 09:00:12;;;;;;;9.07;1.70;;;;;;;17.94;73.94;101819.16;5048597;28;20033;-41
2022/10/27 09:03:02;;;;;;;9.60;1.90;;;;;;;17.98;73.59;101809.53;5047805;28;20100;-41
2022/10/27 09:05:39;;;;;;;3.70;1.60;;;;;;;18.03;73.35;101815.19;5048098;28;20024;-40
2022/10/27 09:08:33;;;;;;;8.13;1.38;;;;;;;18.11;72.42;101800.53;5037403;28;20076;-41
2022/10/27 09:11:24;;;;;;;2.40;1.25;;;;;;;18.07;72.23;101804.72;5036016;28;20080;-41
2022/10/27 09:13:55;;;;;;;4.05;1.35;;;;;;;18.32;71.68;101808.50;5030344;28;20141;-41
2022/10/27 09:16:31;;;;;;;6.45;1.35;;;;;;;18.25;72.09;101806.84;5048995;28;20037;-41
2022/10/27 09:19:01;;;;;;;3.95;1.05;;;;;;;18.24;72.32;101805.16;5040723;28;20492;-42
2022/10/27 09:21:28;;;;;;;3.90;1.30;;;;;;;18.24;72.07;101805.16;5034173;28;20033;-40
2022/10/27 09:23:58;;;;;;;6.93;1.30;;;;;;;18.34;72.36;101802.84;5052145;28;20033;-43
2022/10/27 09:26:27;;;;;;;6.13;1.27;;;;;;;18.47;70.48;101799.28;5045417;28;20017;-42
2022/10/27 09:28:56;;;;;;;5.40;1.67;;;;;;;18.79;69.45;101787.50;5037891;28;20408;-42
2022/10/27 09:31:36;;;;;;;4.60;1.45;;;;;;;18.60;70.18;101791.91;5033256;28;20135;-42
2022/10/27 09:34:13;;;;;;;4.75;1.25;;;;;;;18.38;70.91;101787.75;5048500;28;20036;-41
2022/10/27 09:36:39;;;;;;;9.18;1.48;;;;;;;18.46;70.99;101784.81;5048440;28;20033;-42
2022/10/27 09:39:04;;;;;;;4.10;1.30;;;;;;;18.38;71.01;101771.41;5046238;28;20044;-42
2022/10/27 09:41:31;;;;;;;7.72;1.40;;;;;;;18.29;70.93;101767.22;5050394;28;20068;-42
2022/10/27 09:43:58;;;;;;;11.30;1.75;;;;;;;18.17;71.95;101767.00;5050217;28;20025;-41
2022/10/27 09:46:26;;;;;;;9.82;1.30;;;;;;;18.29;72.53;101769.94;5050024;28;20029;-42
2022/10/27 09:48:55;;;;;;;8.00;1.35;;;;;;;18.38;72.23;101765.97;5048816;28;20021;-40
2022/10/27 09:51:26;;;;;;;8.77;1.30;;;;;;;18.53;72.33;101758.38;5048759;28;20120;-42
2022/10/27 09:53:53;;;;;;;5.95;2.10;;;;;;;18.50;71.81;101758.78;5050246;28;20017;-42
2022/10/27 09:56:24;;;;;;;4.80;1.45;;;;;;;18.49;72.25;101748.13;5050066;28;20028;-42
2022/10/27 09:58:59;;;;;;;5.57;1.83;;;;;;;18.54;71.78;101748.31;5048774;28;20047;-41
2022/10/27 10:01:56;;;;;;;6.07;1.83;;;;;;;18.52;72.29;101747.69;5048759;28;20079;-42
2022/10/27 10:04:22;;;;;;;7.13;1.70;;;;;;;18.39;72.90;101752.09;5048932;28;20021;-42
2022/10/27 10:06:53;;;;;;;6.43;1.98;;;;;;;18.25;73.66;101750.47;5048050;28;20343;-41
2022/10/27 10:09:27;;;;;;;8.15;1.80;;;;;;;18.30;74.22;101747.06;5049834;28;20032;-43
2022/10/27 10:12:19;;;;;;;6.18;1.63;;;;;;;18.16;73.85;101747.09;5049811;28;20469;-41
2022/10/27 10:14:44;;;;;;;4.85;1.48;;;;;;;18.10;74.14;101747.94;5044842;28;20040;-42
2022/10/27 10:17:25;;;;;;;10.73;1.67;;;;;;;18.19;74.53;101746.69;5049733;28;20033;-42
2022/10/27 10:19:52;;;;;;;8.38;1.63;;;;;;;18.16;74.96;101738.91;5048532;28;20048;-41
2022/10/27 10:22:21;;;;;;;10.45;2.17;;;;;;;18.12;74.67;101748.56;5049526;28;20037;-41
2022/10/27 10:24:46;;;;;;;7.75;1.80;;;;;;;18.11;75.52;101744.16;5048057;28;20029;-41
2022/10/27 10:27:24;;;;;;;4.97;1.42;;;;;;;18.11;75.69;101748.75;5048225;28;20495;-42
2022/10/27 10:29:49;;;;;;;6.68;1.50;;;;;;;18.09;75.32;101751.72;5049922;28;20025;-42
2022/10/27 10:32:17;;;;;;;6.70;1.58;;;;;;;18.10;76.18;101745.22;5048251;28;20056;-42
2022/10/27 10:34:42;;;;;;;8.52;1.65;;;;;;;18.18;75.94;101745.00;5049698;28;20032;-42
2022/10/27 10:37:34;;;;;;;6.82;1.45;;;;;;;18.13;75.93;101750.22;5049622;28;20017;-43
2022/10/27 10:40:11;;;;;;;7.00;1.88;;;;;;;18.22;76.16;101742.72;5049848;28;20029;-41
2022/10/27 10:42:37;;;;;;;5.97;1.70;;;;;;;18.25;76.55;101736.00;5049484;28;20033;-41
2022/10/27 10:45:09;;;;;;;10.75;1.63;;;;;;;18.33;76.31;101733.06;5048222;28;20529;-41
2022/10/27 10:47:36;;;;;;;6.38;1.60;;;;;;;18.36;75.86;101735.34;5049755;28;20025;-42
2022/10/27 10:50:01;;;;;;;6.35;1.70;;;;;;;18.32;75.90;101743.09;5049065;28;20036;-41
2022/10/27 10:52:34;;;;;;;8.65;1.85;;;;;;;18.34;76.10;101751.91;5053253;28;20025;-42
2022/10/27 10:55:06;;;;;;;9.18;1.70;;;;;;;18.38;76.79;101744.16;5051238;28;20219;-40
2022/10/27 10:57:36;;;;;;;11.20;1.70;;;;;;;18.29;76.94;101740.78;5049298;28;20527;-42
2022/10/27 11:00:04;;;;;;;7.72;1.52;;;;;;;18.29;76.78;101742.69;5050531;28;20029;-40
2022/10/27 11:02:31;;;;;;;6.95;1.77;;;;;;;18.25;77.37;101736.00;5050761;28;20143;-40
2022/10/27 11:05:08;;;;;;;6.82;2.00;;;;;;;18.15;77.78;101729.06;5049047;28;20206;-41
2022/10/27 11:07:34;;;;;;;5.13;2.20;;;;;;;18.10;78.42;101734.31;5049235;28;20052;-41
2022/10/27 11:10:05;;;;;;;6.20;2.00;;;;;;;18.08;78.69;101733.69;5048892;28;20025;-41
2022/10/27 11:12:55;;;;;;;7.13;2.20;;;;;;;18.06;78.53;101719.44;5050227;28;20025;-41
2022/10/27 11:15:34;;;;;;;8.80;1.90;;;;;;;18.09;78.66;101712.72;5050136;28;20044;-41
2022/10/27 11:18:28;;;;;;;12.45;2.47;;;;;;;18.13;78.96;101705.81;5031847;28;20069;-41
2022/10/27 11:21:01;;;;;;;10.10;2.20;;;;;;;18.11;78.99;101711.47;5048906;28;20117;-41
2022/10/27 11:23:36;;;;;;;7.47;1.98;;;;;;;18.08;79.98;101716.50;5049924;28;20032;-41